createdAt,value
2017-06-23T00:00:28.478Z,22.29
2017-06-23T00:01:28.506Z,22.08
2017-06-23T00:02:28.454Z,22.12
2017-06-23T00:03:28.503Z,22.1
2017-06-23T00:04:28.475Z,22.08
2017-06-23T00:05:28.472Z,22.27
2017-06-23T00:06:28.450Z,22.2
2017-06-23T00:07:28.422Z,22.2
2017-06-23T00:08:28.378Z,22.37
2017-06-23T00:09:28.422Z,22.47
2017-06-23T00:10:28.043Z,22.52
2017-06-23T00:11:28.024Z,22.4
2017-06-23T00:12:28.015Z,22.43
2017-06-23T00:13:28.341Z,22.42
2017-06-23T00:14:27.989Z,22.55
2017-06-23T00:15:27.976Z,22.43
2017-06-23T00:16:28.269Z,22.33
2017-06-23T00:17:27.653Z,22.42
2017-06-23T00:18:27.936Z,22.4
2017-06-23T00:19:27.926Z,22.47
2017-06-23T00:20:27.922Z,22.36
2017-06-23T00:21:28.224Z,22.21
2017-06-23T00:22:28.222Z,22.27
2017-06-23T00:23:27.568Z,22.21
2017-06-23T00:24:27.875Z,22.21
2017-06-23T00:25:27.851Z,22.29
2017-06-23T00:26:27.840Z,22.25
2017-06-23T00:27:28.141Z,22.03
2017-06-23T00:28:28.142Z,22.14
2017-06-23T00:29:28.132Z,22.11
2017-06-23T00:30:27.810Z,22.08
2017-06-23T00:31:27.779Z,22.14
2017-06-23T00:32:27.782Z,22.11
2017-06-23T00:33:27.755Z,22.11
2017-06-23T00:34:27.749Z,22.12
2017-06-23T00:35:27.733Z,22.12
2017-06-23T00:36:27.717Z,22.05
2017-06-23T00:37:27.702Z,22.06
2017-06-23T00:38:27.682Z,22.08
2017-06-23T00:39:27.688Z,22.03
2017-06-23T00:40:27.671Z,21.9
2017-06-23T00:41:27.669Z,22.08
2017-06-23T00:42:27.645Z,22.02
2017-06-23T00:43:27.634Z,21.97
2017-06-23T00:44:27.923Z,21.93
2017-06-23T00:45:27.912Z,21.86
2017-06-23T00:46:27.891Z,21.83
2017-06-23T00:47:27.576Z,21.92
2017-06-23T00:48:27.869Z,21.97
2017-06-23T00:49:27.851Z,21.96
2017-06-23T00:50:27.545Z,21.92
2017-06-23T00:51:27.519Z,21.76
2017-06-23T00:52:27.531Z,21.77
2017-06-23T00:53:27.822Z,21.71
2017-06-23T00:54:27.792Z,21.68
2017-06-23T00:55:27.787Z,21.71
2017-06-23T00:56:27.763Z,21.81
2017-06-23T00:57:27.765Z,21.93
2017-06-23T00:58:27.741Z,21.83
2017-06-23T00:59:27.735Z,21.9
2017-06-23T01:00:27.712Z,21.88
2017-06-23T01:01:27.400Z,21.92
2017-06-23T01:02:27.693Z,21.97
2017-06-23T01:03:27.671Z,21.97
2017-06-23T01:04:27.671Z,22.05
2017-06-23T01:05:27.673Z,21.99
2017-06-23T01:06:27.658Z,22.1
2017-06-23T01:07:27.636Z,21.9
2017-06-23T01:08:27.617Z,21.92
2017-06-23T01:09:27.661Z,21.97
2017-06-23T01:10:27.600Z,22.06
2017-06-23T01:11:27.411Z,22.03
2017-06-23T01:12:27.251Z,22.11
2017-06-23T01:13:27.593Z,22.05
2017-06-23T01:14:27.541Z,21.97
2017-06-23T01:15:27.271Z,21.96
2017-06-23T01:16:27.210Z,21.99
2017-06-23T01:17:27.201Z,21.97
2017-06-23T01:18:27.176Z,21.95
2017-06-23T01:19:27.472Z,21.84
2017-06-23T01:20:27.469Z,21.83
2017-06-23T01:21:27.449Z,21.77
2017-06-23T01:22:27.131Z,21.83
2017-06-23T01:23:27.445Z,21.86
2017-06-23T01:24:26.821Z,21.81
2017-06-23T01:25:26.797Z,21.97
2017-06-23T01:26:27.123Z,21.99
2017-06-23T01:27:27.372Z,21.92
2017-06-23T01:28:27.371Z,21.86
2017-06-23T01:29:27.050Z,21.9
2017-06-23T01:30:27.039Z,21.79
2017-06-23T01:31:26.704Z,21.79
2017-06-23T01:32:27.010Z,21.88
2017-06-23T01:33:27.303Z,21.86
2017-06-23T01:34:26.977Z,21.84
2017-06-23T01:35:26.977Z,21.84
2017-06-23T01:36:27.311Z,21.88
2017-06-23T01:37:26.945Z,21.93
2017-06-23T01:38:27.261Z,21.92
2017-06-23T01:39:26.603Z,21.93
2017-06-23T01:40:26.912Z,22.02
2017-06-23T01:41:27.200Z,21.93
2017-06-23T01:42:26.911Z,21.96
2017-06-23T01:43:26.864Z,21.74
2017-06-23T01:44:26.867Z,21.79
2017-06-23T01:45:26.839Z,21.79
2017-06-23T01:46:27.135Z,21.88
2017-06-23T01:47:26.820Z,21.86
2017-06-23T01:48:26.880Z,21.95
2017-06-23T01:49:26.482Z,21.96
2017-06-23T01:50:26.527Z,21.76
2017-06-23T01:51:27.071Z,21.8
2017-06-23T01:52:27.058Z,21.81
2017-06-23T01:53:26.434Z,21.71
2017-06-23T01:54:26.723Z,21.86
2017-06-23T01:55:27.029Z,21.81
2017-06-23T01:56:26.808Z,21.79
2017-06-23T01:57:26.734Z,21.84
2017-06-23T01:58:26.691Z,21.9
2017-06-23T01:59:26.672Z,21.83
2017-06-23T02:00:26.950Z,21.83
2017-06-23T02:01:27.163Z,21.79
2017-06-23T02:02:26.640Z,21.73
2017-06-23T02:03:26.612Z,21.76
2017-06-23T02:04:26.651Z,21.86
2017-06-23T02:05:26.911Z,21.83
2017-06-23T02:06:26.599Z,21.8
2017-06-23T02:07:26.861Z,21.66
2017-06-23T02:08:26.851Z,21.68
2017-06-23T02:09:26.545Z,21.81
2017-06-23T02:10:26.225Z,21.79
2017-06-23T02:11:26.823Z,21.73
2017-06-23T02:12:26.641Z,21.71
2017-06-23T02:13:26.494Z,21.68
2017-06-23T02:14:26.164Z,21.7
2017-06-23T02:15:26.772Z,21.66
2017-06-23T02:16:26.903Z,21.58
2017-06-23T02:17:26.439Z,21.61
2017-06-23T02:18:26.814Z,21.56
2017-06-23T02:19:26.821Z,21.52
2017-06-23T02:20:26.702Z,21.68
2017-06-23T02:21:26.444Z,21.62
2017-06-23T02:22:26.771Z,21.62
2017-06-23T02:23:26.391Z,21.62
2017-06-23T02:24:26.690Z,21.65
2017-06-23T02:25:26.334Z,21.65
2017-06-23T02:26:26.682Z,21.7
2017-06-23T02:27:26.603Z,21.76
2017-06-23T02:28:26.290Z,21.76
2017-06-23T02:29:26.692Z,21.84
2017-06-23T02:30:26.271Z,21.79
2017-06-23T02:31:26.563Z,21.52
2017-06-23T02:32:26.246Z,21.46
2017-06-23T02:33:25.972Z,21.56
2017-06-23T02:34:26.528Z,21.68
2017-06-23T02:35:26.522Z,21.7
2017-06-23T02:36:26.505Z,21.68
2017-06-23T02:37:26.497Z,21.59
2017-06-23T02:38:26.471Z,21.56
2017-06-23T02:39:26.472Z,21.64
2017-06-23T02:40:26.448Z,21.55
2017-06-23T02:41:26.439Z,21.56
2017-06-23T02:42:26.433Z,21.66
2017-06-23T02:43:26.399Z,21.59
2017-06-23T02:44:26.403Z,21.62
2017-06-23T02:45:26.091Z,21.59
2017-06-23T02:46:26.071Z,21.65
2017-06-23T02:47:26.055Z,21.65
2017-06-23T02:48:26.356Z,21.7
2017-06-23T02:49:26.031Z,21.61
2017-06-23T02:50:26.014Z,21.46
2017-06-23T02:51:25.984Z,21.49
2017-06-23T02:52:25.985Z,21.44
2017-06-23T02:53:25.979Z,21.47
2017-06-23T02:54:25.992Z,21.54
2017-06-23T02:55:25.951Z,21.49
2017-06-23T02:56:25.630Z,21.58
2017-06-23T02:57:25.910Z,21.49
2017-06-23T02:58:26.208Z,21.49
2017-06-23T02:59:25.902Z,21.55
2017-06-23T03:00:26.181Z,21.59
2017-06-23T03:01:26.171Z,21.5
2017-06-23T03:02:25.850Z,21.49
2017-06-23T03:03:26.140Z,21.47
2017-06-23T03:04:25.510Z,21.46
2017-06-23T03:05:26.112Z,21.55
2017-06-23T03:06:25.492Z,21.59
2017-06-23T03:07:25.792Z,21.66
2017-06-23T03:08:26.069Z,21.58
2017-06-23T03:09:25.754Z,21.49
2017-06-23T03:10:26.059Z,21.39
2017-06-23T03:11:26.050Z,21.37
2017-06-23T03:12:25.728Z,21.44
2017-06-23T03:13:26.030Z,21.44
2017-06-23T03:14:26.003Z,21.44
2017-06-23T03:15:25.990Z,21.5
2017-06-23T03:16:25.970Z,21.58
2017-06-23T03:17:25.963Z,21.61
2017-06-23T03:18:25.951Z,21.68
2017-06-23T03:19:25.940Z,21.68
2017-06-23T03:20:25.609Z,21.73
2017-06-23T03:21:25.612Z,21.62
2017-06-23T03:22:25.580Z,21.62
2017-06-23T03:23:25.585Z,21.58
2017-06-23T03:24:25.580Z,21.62
2017-06-23T03:25:25.558Z,21.58
2017-06-23T03:26:25.531Z,21.44
2017-06-23T03:27:25.827Z,21.49
2017-06-23T03:28:25.508Z,21.54
2017-06-23T03:29:25.492Z,21.55
2017-06-23T03:30:25.488Z,21.59
2017-06-23T03:31:25.479Z,21.62
2017-06-23T03:32:25.489Z,21.61
2017-06-23T03:33:25.761Z,21.68
2017-06-23T03:34:25.438Z,21.56
2017-06-23T03:35:25.739Z,21.61
2017-06-23T03:36:25.401Z,21.55
2017-06-23T03:37:25.711Z,21.44
2017-06-23T03:38:25.392Z,21.4
2017-06-23T03:39:25.209Z,21.4
2017-06-23T03:40:25.664Z,21.28
2017-06-23T03:41:25.355Z,21.28
2017-06-23T03:42:25.320Z,21.34
2017-06-23T03:43:25.374Z,21.33
2017-06-23T03:44:25.601Z,21.37
2017-06-23T03:45:25.294Z,21.39
2017-06-23T03:46:25.588Z,21.43
2017-06-23T03:47:25.270Z,21.39
2017-06-23T03:48:25.245Z,21.37
2017-06-23T03:49:25.293Z,21.34
2017-06-23T03:50:25.221Z,21.4
2017-06-23T03:51:25.510Z,21.43
2017-06-23T03:52:25.503Z,21.34
2017-06-23T03:53:25.185Z,21.37
2017-06-23T03:54:25.492Z,21.39
2017-06-23T03:55:25.470Z,21.34
2017-06-23T03:56:25.440Z,21.28
2017-06-23T03:57:25.141Z,21.26
2017-06-23T03:58:25.420Z,21.25
2017-06-23T03:59:25.423Z,21.28
2017-06-23T04:00:25.422Z,21.33
2017-06-23T04:01:25.390Z,21.36
2017-06-23T04:02:25.392Z,21.36
2017-06-23T04:03:25.361Z,21.37
2017-06-23T04:04:25.053Z,21.41
2017-06-23T04:05:25.032Z,21.44
2017-06-23T04:06:25.312Z,21.56
2017-06-23T04:07:24.993Z,21.49
2017-06-23T04:08:25.297Z,21.39
2017-06-23T04:09:24.973Z,21.44
2017-06-23T04:10:24.978Z,21.46
2017-06-23T04:11:24.950Z,21.44
2017-06-23T04:12:24.952Z,21.46
2017-06-23T04:13:24.933Z,21.54
2017-06-23T04:14:25.221Z,21.5
2017-06-23T04:15:25.211Z,21.26
2017-06-23T04:16:25.256Z,21.37
2017-06-23T04:17:25.168Z,21.44
2017-06-23T04:18:25.166Z,21.37
2017-06-23T04:19:25.161Z,21.5
2017-06-23T04:20:25.140Z,21.56
2017-06-23T04:21:24.820Z,21.65
2017-06-23T04:22:24.830Z,21.7
2017-06-23T04:23:25.093Z,21.77
2017-06-23T04:24:24.803Z,21.83
2017-06-23T04:25:25.131Z,21.77
2017-06-23T04:26:25.057Z,21.8
2017-06-23T04:27:24.742Z,21.59
2017-06-23T04:28:25.029Z,21.76
2017-06-23T04:29:25.036Z,21.77
2017-06-23T04:30:25.011Z,21.52
2017-06-23T04:31:24.990Z,21.37
2017-06-23T04:32:24.381Z,21.39
2017-06-23T04:33:24.672Z,21.49
2017-06-23T04:34:24.642Z,21.58
2017-06-23T04:35:24.660Z,21.58
2017-06-23T04:36:24.949Z,21.65
2017-06-23T04:37:24.932Z,21.71
2017-06-23T04:38:24.421Z,21.79
2017-06-23T04:39:24.720Z,21.84
2017-06-23T04:40:24.393Z,21.77
2017-06-23T04:41:24.562Z,21.83
2017-06-23T04:42:24.893Z,21.76
2017-06-23T04:43:24.226Z,21.81
2017-06-23T04:44:24.671Z,21.71
2017-06-23T04:45:24.515Z,21.74
2017-06-23T04:46:24.542Z,21.66
2017-06-23T04:47:24.581Z,21.66
2017-06-23T04:48:24.484Z,21.74
2017-06-23T04:49:24.455Z,21.59
2017-06-23T04:50:24.761Z,21.54
2017-06-23T04:51:24.142Z,21.5
2017-06-23T04:52:24.721Z,21.54
2017-06-23T04:53:24.714Z,21.59
2017-06-23T04:54:24.391Z,21.61
2017-06-23T04:55:24.371Z,21.58
2017-06-23T04:56:24.671Z,21.68
2017-06-23T04:57:24.363Z,21.68
2017-06-23T04:58:24.351Z,21.65
2017-06-23T04:59:24.360Z,21.58
2017-06-23T05:00:24.685Z,21.49
2017-06-23T05:01:24.309Z,21.54
2017-06-23T05:02:24.281Z,21.66
2017-06-23T05:03:24.272Z,21.83
2017-06-23T05:04:24.271Z,21.83
2017-06-23T05:05:24.548Z,21.81
2017-06-23T05:06:24.578Z,21.86
2017-06-23T05:07:24.223Z,21.93
2017-06-23T05:08:23.898Z,21.88
2017-06-23T05:09:24.512Z,21.95
2017-06-23T05:10:24.203Z,21.95
2017-06-23T05:11:24.184Z,21.97
2017-06-23T05:12:24.492Z,21.92
2017-06-23T05:13:24.151Z,21.83
2017-06-23T05:14:24.139Z,21.83
2017-06-23T05:15:23.830Z,21.79
2017-06-23T05:16:24.414Z,21.73
2017-06-23T05:17:24.091Z,21.65
2017-06-23T05:18:23.776Z,21.61
2017-06-23T05:19:23.774Z,21.58
2017-06-23T05:20:24.368Z,21.59
2017-06-23T05:21:24.067Z,21.62
2017-06-23T05:22:24.352Z,21.46
2017-06-23T05:23:24.043Z,21.59
2017-06-23T05:24:24.322Z,21.65
2017-06-23T05:25:24.304Z,21.7
2017-06-23T05:26:24.006Z,21.79
2017-06-23T05:27:24.272Z,21.74
2017-06-23T05:28:24.263Z,21.79
2017-06-23T05:29:24.252Z,21.76
2017-06-23T05:30:24.244Z,21.8
2017-06-23T05:31:24.242Z,21.83
2017-06-23T05:32:24.223Z,21.77
2017-06-23T05:33:24.204Z,21.74
2017-06-23T05:34:24.202Z,21.77
2017-06-23T05:35:24.177Z,21.77
2017-06-23T05:36:24.173Z,21.79
2017-06-23T05:37:23.844Z,21.81
2017-06-23T05:38:24.153Z,21.81
2017-06-23T05:39:23.832Z,21.95
2017-06-23T05:40:23.537Z,21.93
2017-06-23T05:41:23.806Z,21.99
2017-06-23T05:42:24.321Z,21.84
2017-06-23T05:43:24.093Z,21.92
2017-06-23T05:44:24.069Z,21.83
2017-06-23T05:45:24.060Z,21.93
2017-06-23T05:46:24.059Z,21.95
2017-06-23T05:47:24.044Z,21.99
2017-06-23T05:48:24.031Z,21.83
2017-06-23T05:49:24.014Z,21.73
2017-06-23T05:50:24.007Z,21.8
2017-06-23T05:51:23.994Z,21.81
2017-06-23T05:52:23.663Z,21.73
2017-06-23T05:53:23.967Z,21.8
2017-06-23T05:54:23.944Z,21.9
2017-06-23T05:55:23.962Z,21.79
2017-06-23T05:56:23.614Z,21.86
2017-06-23T05:57:23.594Z,21.73
2017-06-23T05:58:23.583Z,21.77
2017-06-23T05:59:23.884Z,21.61
2017-06-23T06:00:23.575Z,21.59
2017-06-23T06:01:23.862Z,21.68
2017-06-23T06:02:23.851Z,21.8
2017-06-23T06:03:23.534Z,21.93
2017-06-23T06:04:23.524Z,21.96
2017-06-23T06:05:23.807Z,21.86
2017-06-23T06:06:23.184Z,21.92
2017-06-23T06:07:23.494Z,21.93
2017-06-23T06:08:23.766Z,21.96
2017-06-23T06:09:23.799Z,21.79
2017-06-23T06:10:23.434Z,21.92
2017-06-23T06:11:23.439Z,21.99
2017-06-23T06:12:23.433Z,21.99
2017-06-23T06:13:23.420Z,22.1
2017-06-23T06:14:23.403Z,22.17
2017-06-23T06:15:23.689Z,22.25
2017-06-23T06:16:23.683Z,22.39
2017-06-23T06:17:23.667Z,22.47
2017-06-23T06:18:23.645Z,22.55
2017-06-23T06:19:23.704Z,22.66
2017-06-23T06:20:23.005Z,22.79
2017-06-23T06:21:23.622Z,22.94
2017-06-23T06:22:23.600Z,22.98
2017-06-23T06:23:23.298Z,23.1
2017-06-23T06:24:23.573Z,23.25
2017-06-23T06:25:23.264Z,23.24
2017-06-23T06:26:23.551Z,23.03
2017-06-23T06:27:23.250Z,22.97
2017-06-23T06:28:23.217Z,22.88
2017-06-23T06:29:23.250Z,22.84
2017-06-23T06:30:23.193Z,22.72
2017-06-23T06:31:23.195Z,22.62
2017-06-23T06:32:23.486Z,22.62
2017-06-23T06:33:22.862Z,22.66
2017-06-23T06:34:23.472Z,22.61
2017-06-23T06:35:23.146Z,22.58
2017-06-23T06:36:23.150Z,22.65
2017-06-23T06:37:23.114Z,22.59
2017-06-23T06:38:23.227Z,22.58
2017-06-23T06:39:22.804Z,22.57
2017-06-23T06:40:23.400Z,22.73
2017-06-23T06:41:23.064Z,22.79
2017-06-23T06:42:23.385Z,22.84
2017-06-23T06:43:23.367Z,22.92
2017-06-23T06:44:23.036Z,22.94
2017-06-23T06:45:23.035Z,22.84
2017-06-23T06:46:23.326Z,22.79
2017-06-23T06:47:23.088Z,22.82
2017-06-23T06:48:22.981Z,22.92
2017-06-23T06:49:22.977Z,22.82
2017-06-23T06:50:23.029Z,22.79
2017-06-23T06:51:23.262Z,22.67
2017-06-23T06:52:23.000Z,22.59
2017-06-23T06:53:23.256Z,22.5
2017-06-23T06:54:23.225Z,22.62
2017-06-23T06:55:23.241Z,22.69
2017-06-23T06:56:22.914Z,22.66
2017-06-23T06:57:22.898Z,22.65
2017-06-23T06:58:22.586Z,22.45
2017-06-23T06:59:22.556Z,22.33
2017-06-23T07:00:22.858Z,22.42
2017-06-23T07:01:22.862Z,22.54
2017-06-23T07:02:22.636Z,22.58
2017-06-23T07:03:23.184Z,22.66
2017-06-23T07:04:23.262Z,22.79
2017-06-23T07:05:22.803Z,22.82
2017-06-23T07:06:22.799Z,22.94
2017-06-23T07:07:22.835Z,22.98
2017-06-23T07:08:23.087Z,23.02
2017-06-23T07:09:22.853Z,23.1
2017-06-23T07:10:22.500Z,23.25
2017-06-23T07:11:23.134Z,23.41
2017-06-23T07:12:22.776Z,23.32
2017-06-23T07:13:23.086Z,23.27
2017-06-23T07:14:22.705Z,23.42
2017-06-23T07:15:22.464Z,23.47
2017-06-23T07:16:22.674Z,23.41
2017-06-23T07:17:22.362Z,23.59
2017-06-23T07:18:22.664Z,23.6
2017-06-23T07:19:22.346Z,23.62
2017-06-23T07:20:22.353Z,23.7
2017-06-23T07:21:22.628Z,23.69
2017-06-23T07:22:22.937Z,23.84
2017-06-23T07:23:22.972Z,23.8
2017-06-23T07:24:22.285Z,23.84
2017-06-23T07:25:22.973Z,23.82
2017-06-23T07:26:22.876Z,23.81
2017-06-23T07:27:22.919Z,23.81
2017-06-23T07:28:22.550Z,23.87
2017-06-23T07:29:22.874Z,23.69
2017-06-23T07:30:22.517Z,23.65
2017-06-23T07:31:22.513Z,23.62
2017-06-23T07:32:22.816Z,23.81
2017-06-23T07:33:22.822Z,23.87
2017-06-23T07:34:22.489Z,23.75
2017-06-23T07:35:22.782Z,23.55
2017-06-23T07:36:22.478Z,23.65
2017-06-23T07:37:22.762Z,23.78
2017-06-23T07:38:22.759Z,23.89
2017-06-23T07:39:22.124Z,23.92
2017-06-23T07:40:22.728Z,23.82
2017-06-23T07:41:22.132Z,23.85
2017-06-23T07:42:22.704Z,23.8
2017-06-23T07:43:22.693Z,23.6
2017-06-23T07:44:22.462Z,23.77
2017-06-23T07:45:22.376Z,23.65
2017-06-23T07:46:22.682Z,23.73
2017-06-23T07:47:22.352Z,23.77
2017-06-23T07:48:22.395Z,23.77
2017-06-23T07:49:22.022Z,23.69
2017-06-23T07:50:22.323Z,23.59
2017-06-23T07:51:22.321Z,23.59
2017-06-23T07:52:22.311Z,23.66
2017-06-23T07:53:22.281Z,23.47
2017-06-23T07:54:22.632Z,23.63
2017-06-23T07:55:22.267Z,23.78
2017-06-23T07:56:22.567Z,23.75
2017-06-23T07:57:22.253Z,23.81
2017-06-23T07:58:22.551Z,23.99
2017-06-23T07:59:22.529Z,24.22
2017-06-23T08:00:22.225Z,24.15
2017-06-23T08:01:22.201Z,24.1
2017-06-23T08:02:22.512Z,24.07
2017-06-23T08:03:22.547Z,24.18
2017-06-23T08:04:22.176Z,24.22
2017-06-23T08:05:22.166Z,24.06
2017-06-23T08:06:22.454Z,23.82
2017-06-23T08:07:22.556Z,23.89
2017-06-23T08:08:22.139Z,24.06
2017-06-23T08:09:22.119Z,24.28
2017-06-23T08:10:22.122Z,24.24
2017-06-23T08:11:22.100Z,24.4
2017-06-23T08:12:21.781Z,24.58
2017-06-23T08:13:22.088Z,24.58
2017-06-23T08:14:22.368Z,24.55
2017-06-23T08:15:22.445Z,24.49
2017-06-23T08:16:21.740Z,24.55
2017-06-23T08:17:22.351Z,24.59
2017-06-23T08:18:22.041Z,24.58
2017-06-23T08:19:22.049Z,24.61
2017-06-23T08:20:22.320Z,24.59
2017-06-23T08:21:22.318Z,24.59
2017-06-23T08:22:22.299Z,24.71
2017-06-23T08:23:21.977Z,24.77
2017-06-23T08:24:22.281Z,24.8
2017-06-23T08:25:21.965Z,24.58
2017-06-23T08:26:21.644Z,24.61
2017-06-23T08:27:22.261Z,24.59
2017-06-23T08:28:21.951Z,24.54
2017-06-23T08:29:21.620Z,24.58
2017-06-23T08:30:21.920Z,24.82
2017-06-23T08:31:22.217Z,24.81
2017-06-23T08:32:21.913Z,24.59
2017-06-23T08:33:21.898Z,24.58
2017-06-23T08:34:21.875Z,24.87
2017-06-23T08:35:21.870Z,24.77
2017-06-23T08:36:21.860Z,24.9
2017-06-23T08:37:21.857Z,25.02
2017-06-23T08:38:22.151Z,25.4
2017-06-23T08:39:22.148Z,25.34
2017-06-23T08:40:22.123Z,25.45
2017-06-23T08:41:22.129Z,25.44
2017-06-23T08:42:22.103Z,25.42
2017-06-23T08:43:21.803Z,25.4
2017-06-23T08:44:22.091Z,25.32
2017-06-23T08:45:21.773Z,25.11
2017-06-23T08:46:22.068Z,24.96
2017-06-23T08:47:21.751Z,24.87
2017-06-23T08:48:22.090Z,24.97
2017-06-23T08:49:22.043Z,24.97
2017-06-23T08:50:21.741Z,24.92
2017-06-23T08:51:22.019Z,24.97
2017-06-23T08:52:21.723Z,24.85
2017-06-23T08:53:22.019Z,24.78
2017-06-23T08:54:21.701Z,24.93
2017-06-23T08:55:21.702Z,25
2017-06-23T08:56:22.089Z,25
2017-06-23T08:57:21.360Z,25.17
2017-06-23T08:58:22.017Z,25.27
2017-06-23T08:59:21.659Z,25.26
2017-06-23T09:00:22.052Z,25.25
2017-06-23T09:01:21.627Z,25.27
2017-06-23T09:02:21.924Z,25.22
2017-06-23T09:03:21.916Z,25.25
2017-06-23T09:04:21.927Z,25.15
2017-06-23T09:05:21.898Z,25.29
2017-06-23T09:06:21.596Z,25.4
2017-06-23T09:07:21.573Z,25.4
2017-06-23T09:08:21.867Z,25.39
2017-06-23T09:09:21.869Z,25.4
2017-06-23T09:10:21.848Z,25.37
2017-06-23T09:11:21.842Z,25.4
2017-06-23T09:12:21.840Z,25.52
2017-06-23T09:13:21.832Z,25.73
2017-06-23T09:14:21.504Z,25.67
2017-06-23T09:15:21.817Z,25.91
2017-06-23T09:16:21.789Z,26.13
2017-06-23T09:17:21.793Z,25.95
2017-06-23T09:18:21.793Z,25.86
2017-06-23T09:19:21.761Z,25.76
2017-06-23T09:20:21.772Z,25.84
2017-06-23T09:21:21.762Z,25.81
2017-06-23T09:22:21.749Z,25.76
2017-06-23T09:23:21.746Z,25.76
2017-06-23T09:24:21.750Z,25.77
2017-06-23T09:25:21.732Z,25.89
2017-06-23T09:26:21.410Z,25.81
2017-06-23T09:27:21.733Z,25.86
2017-06-23T09:28:21.391Z,25.79
2017-06-23T09:29:21.681Z,25.54
2017-06-23T09:30:21.683Z,25.69
2017-06-23T09:31:21.777Z,25.96
2017-06-23T09:32:21.668Z,26.15
2017-06-23T09:33:21.662Z,26.39
2017-06-23T09:34:21.697Z,26.51
2017-06-23T09:35:21.659Z,26.48
2017-06-23T09:36:21.310Z,26.39
2017-06-23T09:37:21.699Z,26.22
2017-06-23T09:38:21.690Z,25.99
2017-06-23T09:39:21.614Z,25.76
2017-06-23T09:40:21.289Z,25.7
2017-06-23T09:41:21.268Z,25.47
2017-06-23T09:42:21.366Z,25.36
2017-06-23T09:43:21.608Z,25.29
2017-06-23T09:44:21.312Z,25.39
2017-06-23T09:45:21.623Z,25.45
2017-06-23T09:46:21.529Z,25.77
2017-06-23T09:47:21.599Z,25.91
2017-06-23T09:48:21.529Z,26.2
2017-06-23T09:49:21.521Z,26.48
2017-06-23T09:50:21.208Z,26.6
2017-06-23T09:51:21.209Z,26.66
2017-06-23T09:52:21.498Z,26.67
2017-06-23T09:53:21.462Z,26.81
2017-06-23T09:54:21.479Z,26.88
2017-06-23T09:55:21.467Z,26.71
2017-06-23T09:56:21.141Z,26.81
2017-06-23T09:57:21.147Z,26.69
2017-06-23T09:58:21.127Z,26.64
2017-06-23T09:59:21.439Z,26.33
2017-06-23T10:00:21.428Z,26.26
2017-06-23T10:01:21.099Z,25.88
2017-06-23T10:02:21.201Z,26.03
2017-06-23T10:03:20.773Z,26.24
2017-06-23T10:04:21.170Z,26.38
2017-06-23T10:05:21.097Z,26.01
2017-06-23T10:06:21.069Z,26.34
2017-06-23T10:07:21.067Z,26.56
2017-06-23T10:08:21.357Z,26.85
2017-06-23T10:09:21.360Z,26.74
2017-06-23T10:10:21.146Z,26.67
2017-06-23T10:11:21.346Z,26.7
2017-06-23T10:12:21.319Z,26.51
2017-06-23T10:13:21.306Z,26.3
2017-06-23T10:14:21.309Z,25.89
2017-06-23T10:15:21.323Z,25.77
2017-06-23T10:16:21.304Z,25.71
2017-06-23T10:17:20.988Z,25.77
2017-06-23T10:18:21.408Z,25.89
2017-06-23T10:19:21.386Z,26.04
2017-06-23T10:20:21.287Z,26.22
2017-06-23T10:21:20.647Z,26.44
2017-06-23T10:22:21.272Z,26.75
2017-06-23T10:23:21.271Z,26.93
2017-06-23T10:24:20.936Z,26.81
2017-06-23T10:25:21.260Z,26.98
2017-06-23T10:26:21.219Z,27.22
2017-06-23T10:27:21.261Z,27.21
2017-06-23T10:28:21.207Z,27.09
2017-06-23T10:29:20.996Z,27.21
2017-06-23T10:30:21.221Z,27.43
2017-06-23T10:31:21.199Z,27.71
2017-06-23T10:32:21.288Z,27.6
2017-06-23T10:33:21.152Z,27.59
2017-06-23T10:34:21.159Z,27.55
2017-06-23T10:35:21.161Z,27.53
2017-06-23T10:36:20.820Z,27.46
2017-06-23T10:37:21.129Z,27.46
2017-06-23T10:38:20.499Z,27.36
2017-06-23T10:39:20.804Z,27.3
2017-06-23T10:40:20.793Z,26.96
2017-06-23T10:41:20.800Z,26.79
2017-06-23T10:42:21.086Z,26.66
2017-06-23T10:43:20.469Z,26.63
2017-06-23T10:44:21.072Z,26.56
2017-06-23T10:45:20.761Z,26.56
2017-06-23T10:46:20.745Z,26.41
2017-06-23T10:47:20.737Z,26.45
2017-06-23T10:48:21.047Z,26.42
2017-06-23T10:49:21.037Z,26.57
2017-06-23T10:50:20.415Z,26.71
2017-06-23T10:51:20.718Z,26.94
2017-06-23T10:52:21.025Z,27.06
2017-06-23T10:53:21.137Z,27.15
2017-06-23T10:54:21.327Z,27
2017-06-23T10:55:21.274Z,26.79
2017-06-23T10:56:21.163Z,26.84
2017-06-23T10:57:20.677Z,26.82
2017-06-23T10:58:20.708Z,26.89
2017-06-23T10:59:20.658Z,27.13
2017-06-23T11:00:20.747Z,27.31
2017-06-23T11:01:20.623Z,27.37
2017-06-23T11:02:20.303Z,27.38
2017-06-23T11:03:20.619Z,27.43
2017-06-23T11:04:20.608Z,27.59
2017-06-23T11:05:20.591Z,27.79
2017-06-23T11:06:20.588Z,27.9
2017-06-23T11:07:20.947Z,27.93
2017-06-23T11:08:20.947Z,28.06
2017-06-23T11:09:20.568Z,28.1
2017-06-23T11:10:20.871Z,27.74
2017-06-23T11:11:20.552Z,27.53
2017-06-23T11:12:20.550Z,27.34
2017-06-23T11:13:20.877Z,27.34
2017-06-23T11:14:20.847Z,27.33
2017-06-23T11:15:20.825Z,27.41
2017-06-23T11:16:20.827Z,27.52
2017-06-23T11:17:20.814Z,27.72
2017-06-23T11:18:20.499Z,27.78
2017-06-23T11:19:20.870Z,27.9
2017-06-23T11:20:20.797Z,27.84
2017-06-23T11:21:20.807Z,27.59
2017-06-23T11:22:20.779Z,27.57
2017-06-23T11:23:20.453Z,27.64
2017-06-23T11:24:20.457Z,27.72
2017-06-23T11:25:20.758Z,27.76
2017-06-23T11:26:20.788Z,27.55
2017-06-23T11:27:20.738Z,27.38
2017-06-23T11:28:20.428Z,27.3
2017-06-23T11:29:20.419Z,27.19
2017-06-23T11:30:20.700Z,26.86
2017-06-23T11:31:20.698Z,26.82
2017-06-23T11:32:20.378Z,27.07
2017-06-23T11:33:20.698Z,27.19
2017-06-23T11:34:20.367Z,27.01
2017-06-23T11:35:20.670Z,26.86
2017-06-23T11:36:20.664Z,26.57
2017-06-23T11:37:20.339Z,26.56
2017-06-23T11:38:20.351Z,26.81
2017-06-23T11:39:20.015Z,27.04
2017-06-23T11:40:20.657Z,27.25
2017-06-23T11:41:20.318Z,27.48
2017-06-23T11:42:20.623Z,27.57
2017-06-23T11:43:20.610Z,27.25
2017-06-23T11:44:19.988Z,27.21
2017-06-23T11:45:20.588Z,27.25
2017-06-23T11:46:20.277Z,27.21
2017-06-23T11:47:20.579Z,27.23
2017-06-23T11:48:20.246Z,27.09
2017-06-23T11:49:20.241Z,27.18
2017-06-23T11:50:20.550Z,27.33
2017-06-23T11:51:20.541Z,27.4
2017-06-23T11:52:20.608Z,27.6
2017-06-23T11:53:19.900Z,27.57
2017-06-23T11:54:20.526Z,27.38
2017-06-23T11:55:20.193Z,27.3
2017-06-23T11:56:20.512Z,27.11
2017-06-23T11:57:20.489Z,27.18
2017-06-23T11:58:20.469Z,27.41
2017-06-23T11:59:20.459Z,27.76
2017-06-23T12:00:20.465Z,27.98
2017-06-23T12:01:19.846Z,28.21
2017-06-23T12:02:20.458Z,28.24
2017-06-23T12:03:19.819Z,28.3
2017-06-23T12:04:20.441Z,28.28
2017-06-23T12:05:19.822Z,28.5
2017-06-23T12:06:20.109Z,28.5
2017-06-23T12:07:20.409Z,28.55
2017-06-23T12:08:20.388Z,28.52
2017-06-23T12:09:20.078Z,28.67
2017-06-23T12:10:19.770Z,28.55
2017-06-23T12:11:20.056Z,28.49
2017-06-23T12:12:20.059Z,28.28
2017-06-23T12:13:20.049Z,28.33
2017-06-23T12:14:20.046Z,28.25
2017-06-23T12:15:20.369Z,28.31
2017-06-23T12:16:19.728Z,28.12
2017-06-23T12:17:20.030Z,27.96
2017-06-23T12:18:20.317Z,27.79
2017-06-23T12:19:20.338Z,27.79
2017-06-23T12:20:19.688Z,27.91
2017-06-23T12:21:20.301Z,28.13
2017-06-23T12:22:19.979Z,28.24
2017-06-23T12:23:19.970Z,28.27
2017-06-23T12:24:20.266Z,28.3
2017-06-23T12:25:20.281Z,28.03
2017-06-23T12:26:20.279Z,28.19
2017-06-23T12:27:19.969Z,28.34
2017-06-23T12:28:19.937Z,28.3
2017-06-23T12:29:19.946Z,28.46
2017-06-23T12:30:20.242Z,28.27
2017-06-23T12:31:20.009Z,28.28
2017-06-23T12:32:20.208Z,28.13
2017-06-23T12:33:19.910Z,28.25
2017-06-23T12:34:20.205Z,28.09
2017-06-23T12:35:20.248Z,27.94
2017-06-23T12:36:20.184Z,27.93
2017-06-23T12:37:20.217Z,27.76
2017-06-23T12:38:19.858Z,27.82
2017-06-23T12:39:20.169Z,27.75
2017-06-23T12:40:19.844Z,27.75
2017-06-23T12:41:19.838Z,27.72
2017-06-23T12:42:20.148Z,27.59
2017-06-23T12:43:20.148Z,27.48
2017-06-23T12:44:19.814Z,27.53
2017-06-23T12:45:19.808Z,27.57
2017-06-23T12:46:19.803Z,27.71
2017-06-23T12:47:20.119Z,27.88
2017-06-23T12:48:20.098Z,27.91
2017-06-23T12:49:20.087Z,28.15
2017-06-23T12:50:19.554Z,28.13
2017-06-23T12:51:19.765Z,27.98
2017-06-23T12:52:19.751Z,27.64
2017-06-23T12:53:20.070Z,27.81
2017-06-23T12:54:20.056Z,27.79
2017-06-23T12:55:20.055Z,27.86